메인 페이지
METAR-TAF:

METAR-TAF

공항 :

Oelwein Municipal Airport

Oelwein, 아이오와, 미국

위도: 42-40-51N, 경도: 091-58-28W, 고도: 328m

현재 날씨관측

예보는 14분 전, 00:35시(UTC)에 발표되었습니다.
서북서19kt
온도 -12°C
습도 92%
기압 1010 hPa
시정: 16.1km
고도 600ft 상공 구름 조금
고도 1000ft 상공 구름 많음
고도 1800ft 상공 흐림

METAR: KOLZ 100035Z AUTO 30019KT 10SM FEW006 BKN010 OVC018 M12/M13 A2983 RMK A01

시각: 18:49 (00:49 UTC)


TAF: 누락

4,000개 이상의 공항 관측 자료 및 예보 (METAR 및 TAF 보고).

지도상에서 검색 가능한 기상관측소가 노란 점과 빨간 점으로 표시되어 있습니다.

기상관측소 명을 보려면 표시 위로 마우스를 이동하세요.

날씨 관측과 예보를 보려면 클릭하세요.

지도 변경 : 확대하려면 엑스 표시가 있는 녹색 버튼, 축소하려면 빼기 표시가 있는 녹색 버튼, 다음 페이지의 지도를 보려면 녹색 화살표를 클릭하세요.


METAR-TAF: